Time;durP1;ratioP1;P1;durP2;ratioP2;P2;SDS_P1;SDS_P2;PMS_P1;PMS_P2;Temp;Humidity;BMP_temperature;BMP_pressure;BME280_temperature;BME280_humidity;BME280_pressure;Samples;Min_cycle;Max_cycle;Signal;HPM_P1;HPM_P2
2022/07/16 00:01:22;;;;;;;1405.00;999.90;;;17.60;99.90;;;;;;5063179;28;20272;-70
2022/07/16 00:01:44;;;;;;;1415.35;999.90;;;17.60;99.90;;;;;;5074521;28;20197;-70
2022/07/16 00:04:10;;;;;;;1413.07;999.90;;;17.60;99.90;;;;;;5087308;28;20251;-70
2022/07/16 00:06:36;;;;;;;1410.00;999.90;;;17.60;99.90;;;;;;5066883;28;20238;-70
2022/07/16 00:09:03;;;;;;;1384.97;999.90;;;17.60;99.90;;;;;;5056517;28;20185;-70
2022/07/16 00:11:29;;;;;;;1379.50;999.90;;;17.50;99.90;;;;;;5064121;28;20223;-69
2022/07/16 00:13:54;;;;;;;1385.65;999.90;;;17.50;99.90;;;;;;5077832;28;20224;-70
2022/07/16 00:16:20;;;;;;;1392.00;999.90;;;17.40;99.90;;;;;;5084399;28;20192;-70
2022/07/16 00:21:30;;;;;;;1365.68;999.90;;;17.50;99.90;;;;;;5089041;28;20203;-70
2022/07/16 00:23:55;;;;;;;1361.93;999.90;;;17.40;99.90;;;;;;5089959;28;20204;-70
2022/07/16 00:26:21;;;;;;;1435.70;999.90;;;17.30;99.90;;;;;;5072369;28;20723;-70
2022/07/16 00:28:47;;;;;;;1410.32;999.90;;;17.30;99.90;;;;;;5067002;28;20184;-70
2022/07/16 00:31:13;;;;;;;1337.25;999.90;;;17.30;99.90;;;;;;5038526;28;20208;-70
2022/07/16 00:33:39;;;;;;;1234.07;984.42;;;17.30;99.90;;;;;;5081255;28;20633;-70
2022/07/16 00:36:05;;;;;;;1100.35;881.88;;;17.30;99.90;;;;;;5080212;28;20188;-71
2022/07/16 00:38:30;;;;;;;1237.57;991.70;;;17.30;99.90;;;;;;5052242;28;20186;-70
2022/07/16 00:40:56;;;;;;;1215.35;975.47;;;17.20;99.90;;;;;;5060957;28;20220;-70
2022/07/16 00:43:22;;;;;;;1139.30;904.78;;;17.20;99.90;;;;;;5077568;28;20673;-70
2022/07/16 00:45:48;;;;;;;1125.72;903.50;;;17.20;99.90;;;;;;5066999;28;20196;-70
2022/07/16 00:48:13;;;;;;;1144.63;923.08;;;17.20;99.90;;;;;;5068754;28;20216;-69
2022/07/16 00:50:40;;;;;;;1137.07;910.78;;;17.20;99.90;;;;;;5062618;28;20189;-70
2022/07/16 00:53:09;;;;;;;1207.03;969.78;;;17.20;99.90;;;;;;5079211;28;20216;-70
2022/07/16 00:55:35;;;;;;;1152.28;922.10;;;17.20;99.90;;;;;;5088674;28;20185;-70
2022/07/16 00:58:01;;;;;;;1183.05;956.58;;;17.20;99.90;;;;;;5075235;28;20191;-70
2022/07/16 01:00:27;;;;;;;1092.75;865.92;;;17.20;99.90;;;;;;5075181;28;20177;-70
2022/07/16 01:02:53;;;;;;;1049.15;839.88;;;17.20;99.90;;;;;;5079315;28;20221;-70
2022/07/16 01:05:19;;;;;;;1018.22;803.55;;;17.20;99.90;;;;;;5058014;28;20201;-70
2022/07/16 01:07:46;;;;;;;1023.95;810.63;;;17.20;99.90;;;;;;5073226;28;20181;-69
2022/07/16 01:10:13;;;;;;;1050.35;836.53;;;17.30;99.90;;;;;;5094343;28;20207;-70
2022/07/16 01:12:39;;;;;;;1068.68;854.70;;;17.30;99.90;;;;;;5072945;28;20186;-70
2022/07/16 01:15:08;;;;;;;1058.13;840.72;;;17.40;99.90;;;;;;5076516;28;20268;-70
2022/07/16 01:17:34;;;;;;;1142.70;912.80;;;17.40;99.90;;;;;;5088909;28;20222;-70
2022/07/16 01:20:00;;;;;;;1125.35;904.92;;;17.40;99.90;;;;;;5043953;28;20189;-70
2022/07/16 01:22:26;;;;;;;1119.72;893.40;;;17.40;99.90;;;;;;5037616;28;20183;-70
2022/07/16 01:24:52;;;;;;;1165.63;928.08;;;17.40;99.90;;;;;;5057160;28;20194;-70
2022/07/16 01:27:20;;;;;;;1243.38;995.83;;;17.30;99.90;;;;;;5075301;28;20192;-70
2022/07/16 01:29:46;;;;;;;1230.97;991.15;;;17.20;99.90;;;;;;5092650;28;20181;-70
2022/07/16 01:32:12;;;;;;;1190.25;962.65;;;17.20;99.90;;;;;;5059952;28;20201;-70
2022/07/16 01:34:38;;;;;;;1225.60;981.95;;;17.20;99.90;;;;;;5078724;28;20684;-70
2022/07/16 01:37:06;;;;;;;1205.57;977.80;;;17.20;99.90;;;;;;5094801;28;20185;-70
2022/07/16 01:39:38;;;;;;;1225.30;979.50;;;17.20;99.90;;;;;;5086464;28;20195;-71
2022/07/16 01:42:08;;;;;;;1247.15;996.55;;;17.20;99.90;;;;;;5087695;28;20573;-70
2022/07/16 01:44:36;;;;;;;1175.43;945.83;;;17.20;99.90;;;;;;5088752;28;20649;-70
2022/07/16 01:47:04;;;;;;;1126.10;910.47;;;17.20;99.90;;;;;;5074855;28;20569;-70
2022/07/16 01:49:31;;;;;;;1200.68;963.95;;;17.10;99.90;;;;;;5068742;28;20263;-70
2022/07/16 01:52:02;;;;;;;1169.30;953.45;;;17.20;99.90;;;;;;5076179;28;20188;-71
2022/07/16 01:54:28;;;;;;;1218.20;990.80;;;17.10;99.90;;;;;;5065408;28;20205;-70
2022/07/16 01:56:53;;;;;;;1236.70;995.45;;;17.10;99.90;;;;;;5076874;28;20269;-70
2022/07/16 01:59:19;;;;;;;1194.72;962.03;;;17.10;99.90;;;;;;5084710;28;20189;-70
2022/07/16 02:01:45;;;;;;;1014.28;802.75;;;17.20;99.90;;;;;;5036754;28;20192;-70
2022/07/16 02:04:10;;;;;;;1083.22;859.58;;;17.20;99.90;;;;;;5075283;28;20212;-70
2022/07/16 02:06:36;;;;;;;1097.35;876.35;;;17.20;99.90;;;;;;5093923;28;20200;-70
2022/07/16 02:09:02;;;;;;;1042.10;832.15;;;17.20;99.90;;;;;;5061938;28;20189;-71
2022/07/16 02:11:27;;;;;;;1159.65;931.45;;;17.20;99.90;;;;;;5049331;28;20184;-70
2022/07/16 02:13:53;;;;;;;1112.10;896.25;;;17.30;99.90;;;;;;5055257;28;20691;-70
2022/07/16 02:16:19;;;;;;;1144.93;923.67;;;17.20;99.90;;;;;;5081436;28;20654;-70
2022/07/16 02:18:44;;;;;;;1124.45;907.63;;;17.20;99.90;;;;;;5042619;28;20276;-70
2022/07/16 02:21:10;;;;;;;1100.90;887.88;;;17.20;99.90;;;;;;5072460;28;20219;-70
2022/07/16 02:23:36;;;;;;;1129.07;915.80;;;17.20;99.90;;;;;;5071791;28;20295;-70
2022/07/16 02:26:01;;;;;;;1166.55;943.03;;;17.20;99.90;;;;;;5074394;28;20221;-70
2022/07/16 02:28:27;;;;;;;1162.72;948.85;;;17.10;99.90;;;;;;5075731;28;21698;-70
2022/07/16 02:30:53;;;;;;;1167.60;946.28;;;17.10;99.90;;;;;;5072608;28;20280;-70
2022/07/16 02:33:20;;;;;;;1249.13;999.90;;;17.10;99.90;;;;;;5080162;28;20241;-70
2022/07/16 02:35:46;;;;;;;1196.25;974.45;;;17.10;99.90;;;;;;5086176;28;20639;-70
2022/07/16 02:38:12;;;;;;;1381.57;999.90;;;17.00;99.90;;;;;;5058090;28;20221;-70
2022/07/16 02:40:39;;;;;;;1400.32;999.90;;;17.00;99.90;;;;;;5074156;28;20173;-70
2022/07/16 02:43:09;;;;;;;1397.43;999.90;;;17.00;99.90;;;;;;5074755;28;20208;-70
2022/07/16 02:45:37;;;;;;;1091.55;876.38;;;17.00;99.90;;;;;;5090109;28;20192;-70
2022/07/16 02:48:04;;;;;;;1690.93;893.72;;;17.00;99.90;;;;;;5058922;28;20296;-70
2022/07/16 02:50:30;;;;;;;1999.90;999.90;;;16.90;99.90;;;;;;5074341;28;20176;-70
2022/07/16 02:52:56;;;;;;;1999.90;999.90;;;16.80;99.90;;;;;;5070739;28;20195;-70
2022/07/16 02:55:22;;;;;;;1999.90;999.90;;;16.80;99.90;;;;;;5074176;28;20333;-70
2022/07/16 02:57:48;;;;;;;1999.90;999.90;;;16.80;99.90;;;;;;5076922;28;20685;-70
2022/07/16 03:00:15;;;;;;;1999.90;999.90;;;16.70;99.90;;;;;;5069132;28;20623;-71
2022/07/16 03:02:41;;;;;;;1999.90;999.90;;;16.70;99.90;;;;;;5074564;28;20208;-70
2022/07/16 03:05:08;;;;;;;1999.90;999.90;;;16.70;99.90;;;;;;5085339;28;20276;-70
2022/07/16 03:07:37;;;;;;;1999.90;999.90;;;16.60;99.90;;;;;;5083832;28;20181;-70
2022/07/16 03:10:08;;;;;;;1999.90;999.90;;;16.60;99.90;;;;;;5092696;28;20241;-70
2022/07/16 03:12:34;;;;;;;1999.90;999.90;;;16.50;99.90;;;;;;5074459;28;20184;-70
2022/07/16 03:15:02;;;;;;;1999.90;999.90;;;16.40;99.90;;;;;;5070936;28;20258;-70
2022/07/16 03:17:28;;;;;;;1999.90;999.90;;;16.40;99.90;;;;;;5081667;28;20292;-70
2022/07/16 03:19:53;;;;;;;1999.90;999.90;;;16.40;99.90;;;;;;5039280;28;20272;-70
2022/07/16 03:22:19;;;;;;;1999.90;999.90;;;16.40;99.90;;;;;;5076757;28;20211;-70
2022/07/16 03:24:45;;;;;;;1999.90;999.90;;;16.40;99.90;;;;;;5059471;28;20588;-70
2022/07/16 03:27:11;;;;;;;1999.90;999.90;;;16.40;99.90;;;;;;5072265;28;20188;-70
2022/07/16 03:29:37;;;;;;;1999.90;999.90;;;16.30;99.90;;;;;;5078703;28;20188;-70
2022/07/16 03:32:02;;;;;;;1999.90;999.90;;;16.30;99.90;;;;;;5065453;28;20638;-70
2022/07/16 03:34:28;;;;;;;1999.90;999.90;;;16.30;99.90;;;;;;5072022;28;20257;-70
2022/07/16 03:36:54;;;;;;;1999.90;999.90;;;16.40;99.90;;;;;;5080563;28;20553;-70
2022/07/16 03:39:19;;;;;;;1999.90;999.90;;;16.40;99.90;;;;;;5071642;28;20184;-71
2022/07/16 03:41:45;;;;;;;1999.90;999.90;;;16.40;99.90;;;;;;5080989;28;20189;-70
2022/07/16 03:44:12;;;;;;;1999.90;999.90;;;16.40;99.90;;;;;;5077867;28;20303;-70
2022/07/16 03:46:38;;;;;;;1999.90;999.90;;;16.30;99.90;;;;;;5087582;28;20280;-70
2022/07/16 03:49:04;;;;;;;1999.90;999.90;;;16.40;99.90;;;;;;5072635;28;20235;-70
2022/07/16 03:51:30;;;;;;;1999.90;999.90;;;16.30;99.90;;;;;;5055628;28;20193;-70
2022/07/16 03:53:56;;;;;;;1999.90;999.90;;;16.40;99.90;;;;;;5072418;28;20543;-69
2022/07/16 03:56:22;;;;;;;1999.90;999.90;;;16.30;99.90;;;;;;5074928;28;20261;-69
2022/07/16 03:58:48;;;;;;;1999.90;999.90;;;16.30;99.90;;;;;;5091352;28;20262;-69
2022/07/16 04:01:13;;;;;;;1999.90;999.90;;;16.30;99.90;;;;;;5056117;28;20193;-68
2022/07/16 04:03:39;;;;;;;1999.90;999.90;;;16.30;99.90;;;;;;5069882;28;20233;-68
2022/07/16 04:06:05;;;;;;;1999.90;999.90;;;16.40;99.90;;;;;;5071548;28;20637;-70
2022/07/16 04:08:32;;;;;;;1999.90;999.90;;;16.40;99.90;;;;;;5065890;28;20246;-70
2022/07/16 04:10:57;;;;;;;1999.90;999.90;;;16.50;99.90;;;;;;5086638;28;20180;-69
2022/07/16 04:13:23;;;;;;;1999.90;999.90;;;16.50;99.90;;;;;;5074592;28;20192;-69
2022/07/16 04:15:49;;;;;;;1999.90;999.90;;;16.60;99.90;;;;;;5071769;28;20598;-69
2022/07/16 04:18:16;;;;;;;1999.90;999.90;;;16.60;99.90;;;;;;5054514;28;20658;-69
2022/07/16 04:20:42;;;;;;;1999.90;999.90;;;16.80;99.90;;;;;;5064394;28;20193;-69
2022/07/16 04:23:07;;;;;;;1999.90;999.90;;;16.90;99.90;;;;;;5058122;28;20221;-69
2022/07/16 04:25:33;;;;;;;1999.90;999.90;;;16.90;99.90;;;;;;5075537;28;20189;-69
2022/07/16 04:27:59;;;;;;;1999.90;999.90;;;17.00;99.90;;;;;;5075751;28;20601;-70
2022/07/16 04:30:25;;;;;;;1999.90;999.90;;;17.00;99.90;;;;;;5074533;28;20181;-70
2022/07/16 04:32:51;;;;;;;1999.90;999.90;;;17.10;99.90;;;;;;5074894;28;20650;-70
2022/07/16 04:35:17;;;;;;;1999.90;999.90;;;17.00;99.90;;;;;;5076426;28;20189;-69
2022/07/16 04:37:43;;;;;;;1569.68;800.55;;;17.10;99.90;;;;;;5069039;28;20199;-71
2022/07/16 04:40:10;;;;;;;1999.90;999.90;;;17.10;99.90;;;;;;5065297;28;20189;-70
2022/07/16 04:42:37;;;;;;;1999.90;999.90;;;17.20;99.90;;;;;;5069778;28;20184;-69
2022/07/16 04:45:03;;;;;;;1999.90;999.90;;;17.30;99.90;;;;;;5095039;28;20216;-70
2022/07/16 04:47:29;;;;;;;1999.90;999.90;;;17.40;99.90;;;;;;5050116;28;20276;-70
2022/07/16 04:49:54;;;;;;;1999.90;999.90;;;17.50;99.90;;;;;;5078780;28;20607;-70
2022/07/16 04:52:20;;;;;;;1999.90;999.90;;;17.50;99.90;;;;;;5086995;28;20622;-70
2022/07/16 04:54:46;;;;;;;488.67;361.30;;;17.60;99.90;;;;;;5086090;28;20185;-70
2022/07/16 04:57:12;;;;;;;1707.00;911.67;;;17.50;99.90;;;;;;5088078;28;20200;-69
2022/07/16 04:59:37;;;;;;;1999.90;999.90;;;17.60;99.90;;;;;;5053615;28;20347;-69
2022/07/16 05:04:47;;;;;;;1690.07;896.42;;;17.80;99.90;;;;;;5075087;28;20259;-70
2022/07/16 05:07:13;;;;;;;898.35;706.35;;;18.00;99.90;;;;;;5079620;28;20749;-70
2022/07/16 05:09:38;;;;;;;932.92;735.50;;;18.20;99.90;;;;;;5085711;28;20547;-69
2022/07/16 05:12:04;;;;;;;1780.60;975.67;;;18.40;99.90;;;;;;5075828;28;20610;-69
2022/07/16 05:14:30;;;;;;;1180.95;955.63;;;18.50;99.90;;;;;;5081339;28;20181;-69
2022/07/16 05:16:56;;;;;;;1156.53;938.20;;;18.50;99.90;;;;;;5076292;28;20645;-70
2022/07/16 05:19:22;;;;;;;1271.10;999.90;;;18.60;99.90;;;;;;5075865;28;20572;-70
2022/07/16 05:21:48;;;;;;;1300.03;999.90;;;18.70;99.90;;;;;;5051935;28;20310;-72
2022/07/16 05:24:14;;;;;;;1319.57;999.90;;;18.80;99.90;;;;;;5077358;28;20304;-72
2022/07/16 05:26:40;;;;;;;1300.88;999.90;;;19.00;99.90;;;;;;5093790;28;20184;-72
2022/07/16 05:29:05;;;;;;;1334.05;999.90;;;19.10;99.90;;;;;;5076453;28;20181;-72
2022/07/16 05:31:31;;;;;;;1364.55;999.90;;;19.20;99.90;;;;;;5069572;28;20323;-72
2022/07/16 05:33:57;;;;;;;1320.78;999.90;;;19.20;99.90;;;;;;5069348;28;20322;-72
2022/07/16 05:36:22;;;;;;;1362.70;999.90;;;19.20;99.90;;;;;;5032393;28;20196;-72
2022/07/16 05:38:48;;;;;;;1384.05;999.90;;;19.20;99.90;;;;;;5059934;28;20192;-72
2022/07/16 05:41:13;;;;;;;1352.97;999.90;;;19.10;99.90;;;;;;5072618;28;20703;-72
2022/07/16 05:43:39;;;;;;;1394.93;999.90;;;19.10;99.90;;;;;;5074938;28;20552;-72
2022/07/16 05:46:05;;;;;;;1312.07;999.90;;;19.20;99.90;;;;;;5054558;28;20591;-72
2022/07/16 05:48:30;;;;;;;1290.03;999.90;;;19.20;99.90;;;;;;5052505;28;20188;-72
2022/07/16 05:50:56;;;;;;;1243.40;996.10;;;19.30;99.90;;;;;;5065665;28;20534;-72
2022/07/16 05:53:22;;;;;;;1181.82;945.67;;;19.40;99.90;;;;;;5076523;28;20705;-72
2022/07/16 05:55:47;;;;;;;966.83;752.42;;;19.40;99.90;;;;;;5085399;28;20693;-72
2022/07/16 05:58:13;;;;;;;950.95;735.42;;;19.50;99.90;;;;;;5082314;28;20634;-72
2022/07/16 06:00:40;;;;;;;965.67;750.63;;;19.50;99.90;;;;;;5086772;28;20192;-72
2022/07/16 06:03:07;;;;;;;1719.45;916.88;;;19.40;99.90;;;;;;5040476;28;20217;-72
2022/07/16 06:05:33;;;;;;;1999.90;999.90;;;19.40;99.90;;;;;;5074228;28;20646;-72
2022/07/16 06:07:59;;;;;;;1999.90;999.90;;;19.50;99.90;;;;;;5065312;28;20558;-72
2022/07/16 06:10:25;;;;;;;1637.68;847.05;;;19.70;99.90;;;;;;5074091;28;20271;-72
2022/07/16 06:12:50;;;;;;;1999.90;999.90;;;19.90;99.90;;;;;;5083709;28;20567;-72
2022/07/16 06:15:16;;;;;;;1999.90;999.90;;;20.10;99.90;;;;;;5079875;28;20243;-72
2022/07/16 06:17:42;;;;;;;1681.53;883.63;;;20.20;99.90;;;;;;5086435;28;20184;-72
2022/07/16 06:20:09;;;;;;;1999.90;999.90;;;20.30;99.90;;;;;;5053547;28;20185;-72
2022/07/16 06:22:35;;;;;;;1675.03;876.95;;;20.20;99.90;;;;;;5071677;28;20189;-72
2022/07/16 06:25:01;;;;;;;644.08;464.08;;;20.30;99.90;;;;;;5064157;28;20188;-72
2022/07/16 06:27:27;;;;;;;616.17;443.83;;;20.40;99.90;;;;;;5043890;28;20189;-72
2022/07/16 06:29:53;;;;;;;1671.40;873.10;;;20.40;99.90;;;;;;5093113;28;20286;-72
2022/07/16 06:32:18;;;;;;;1999.90;999.90;;;20.30;99.90;;;;;;5086912;28;20192;-72
2022/07/16 06:34:44;;;;;;;1999.90;999.90;;;20.40;99.90;;;;;;5081888;28;20189;-72
2022/07/16 06:37:10;;;;;;;1666.93;869.75;;;20.50;99.90;;;;;;5075637;28;20634;-72
2022/07/16 06:39:35;;;;;;;1293.10;705.67;;;20.60;99.90;;;;;;5078523;28;20211;-72
2022/07/16 06:42:01;;;;;;;1665.00;870.22;;;20.40;99.90;;;;;;5073346;28;20177;-72
2022/07/16 06:44:27;;;;;;;446.80;306.08;;;20.60;99.90;;;;;;5060029;28;20244;-72
2022/07/16 06:46:53;;;;;;;1999.90;999.90;;;20.70;99.90;;;;;;5078876;28;20214;-72
2022/07/16 06:49:19;;;;;;;525.13;359.25;;;20.70;99.90;;;;;;5073515;28;20213;-72
2022/07/16 06:51:45;;;;;;;1344.68;744.78;;;21.00;99.90;;;;;;5077295;28;20665;-71
2022/07/16 06:54:11;;;;;;;1307.32;711.88;;;21.10;99.90;;;;;;5086289;28;20237;-72
2022/07/16 06:56:37;;;;;;;1327.90;730.50;;;20.80;99.90;;;;;;5054832;28;20197;-72
2022/07/16 06:59:03;;;;;;;1328.82;730.58;;;21.00;99.90;;;;;;5083815;28;20630;-72
2022/07/16 07:01:29;;;;;;;1364.35;762.95;;;20.90;99.90;;;;;;5085233;28;20188;-72
2022/07/16 07:03:54;;;;;;;650.70;455.55;;;20.80;99.90;;;;;;5071797;28;20225;-72
2022/07/16 07:06:20;;;;;;;1999.90;999.90;;;20.90;99.90;;;;;;5081481;28;20227;-72
2022/07/16 07:08:46;;;;;;;1276.55;693.33;;;21.30;99.90;;;;;;5079442;28;20691;-72
2022/07/16 07:11:12;;;;;;;1039.95;806.58;;;22.30;99.90;;;;;;5075888;28;20200;-72
2022/07/16 07:13:38;;;;;;;1265.70;999.90;;;24.30;99.90;;;;;;5089015;28;20557;-73
2022/07/16 07:16:05;;;;;;;1295.03;999.90;;;25.10;99.90;;;;;;5061109;28;20537;-73
2022/07/16 07:18:33;;;;;;;1314.95;999.90;;;25.60;99.90;;;;;;5081430;28;20189;-72
2022/07/16 07:20:59;;;;;;;1339.03;999.90;;;25.60;99.90;;;;;;5054249;28;20258;-73
2022/07/16 07:23:25;;;;;;;1329.82;999.90;;;24.90;99.90;;;;;;5083680;28;20229;-73
2022/07/16 07:25:51;;;;;;;1299.70;999.90;;;25.30;99.90;;;;;;5084725;28;20189;-72
2022/07/16 07:28:16;;;;;;;1293.03;999.90;;;25.20;99.90;;;;;;5082135;28;20544;-72
2022/07/16 07:30:42;;;;;;;1271.53;999.90;;;25.10;99.90;;;;;;5085534;28;20192;-72
2022/07/16 07:33:08;;;;;;;1270.22;999.90;;;24.20;99.90;;;;;;5055087;28;20181;-72
2022/07/16 07:35:34;;;;;;;1282.13;999.90;;;23.90;99.90;;;;;;5072749;28;20181;-72
2022/07/16 07:37:59;;;;;;;1280.97;999.90;;;24.70;99.90;;;;;;5052900;28;20231;-73
2022/07/16 07:40:25;;;;;;;1276.95;999.90;;;25.50;99.90;;;;;;5079578;28;20177;-72
2022/07/16 07:42:52;;;;;;;1238.63;999.90;;;27.10;99.90;;;;;;5068226;28;20268;-71
2022/07/16 07:45:18;;;;;;;1193.95;999.90;;;29.10;99.90;;;;;;5090643;28;20188;-72
2022/07/16 07:47:43;;;;;;;1156.72;999.90;;;29.60;99.90;;;;;;5081246;28;20246;-72
2022/07/16 07:50:09;;;;;;;1103.57;999.90;;;31.10;99.90;;;;;;5069054;28;20188;-72
2022/07/16 07:52:35;;;;;;;1057.88;983.75;;;30.10;99.90;;;;;;5085967;28;20213;-72
2022/07/16 07:55:01;;;;;;;1032.22;960.97;;;29.40;99.90;;;;;;5082894;28;20261;-72
2022/07/16 07:57:27;;;;;;;996.42;929.45;;;29.50;99.90;;;;;;5075658;28;20279;-71
2022/07/16 07:59:53;;;;;;;925.20;866.35;;;29.00;99.90;;;;;;5060893;28;20278;-71
2022/07/16 08:02:18;;;;;;;935.58;875.80;;;27.00;99.90;;;;;;5086241;28;20188;-72
2022/07/16 08:04:44;;;;;;;965.15;902.35;;;26.20;99.90;;;;;;5077404;28;20223;-71
2022/07/16 08:07:10;;;;;;;956.35;894.42;;;26.90;99.90;;;;;;5092673;28;20189;-71
2022/07/16 08:09:36;;;;;;;937.45;877.35;;;27.00;99.90;;;;;;5085415;28;20260;-71
2022/07/16 08:12:03;;;;;;;979.72;915.80;;;25.90;99.90;;;;;;5072520;28;20183;-71
2022/07/16 08:14:29;;;;;;;1004.13;937.17;;;26.40;99.90;;;;;;5067426;28;20194;-72
2022/07/16 08:16:59;;;;;;;1013.72;945.38;;;26.90;99.90;;;;;;5095736;28;20187;-72
2022/07/16 08:19:24;;;;;;;1003.78;936.55;;;28.10;99.90;;;;;;5069126;28;20271;-72
2022/07/16 08:21:50;;;;;;;970.30;907.00;;;29.50;99.90;;;;;;5068901;28;20262;-71
2022/07/16 08:27:01;;;;;;;924.10;865.45;;;28.70;99.90;;;;;;5076521;28;20191;-72
2022/07/16 08:29:26;;;;;;;908.55;851.58;;;29.70;99.90;;;;;;5079914;28;20649;-72
2022/07/16 08:31:52;;;;;;;891.95;836.47;;;31.20;99.90;;;;;;5070805;28;20188;-72
2022/07/16 08:34:19;;;;;;;849.78;798.40;;;31.30;99.90;;;;;;5070088;28;20203;-72
2022/07/16 08:36:45;;;;;;;798.28;752.55;;;30.40;99.90;;;;;;5046418;28;20176;-71
2022/07/16 08:39:11;;;;;;;800.30;754.42;;;29.00;99.90;;;;;;5076097;28;20652;-71
2022/07/16 08:41:37;;;;;;;811.47;764.45;;;28.00;99.90;;;;;;5088201;28;20176;-71
2022/07/16 08:44:04;;;;;;;838.55;788.15;;;27.50;99.90;;;;;;5079792;28;20219;-71
2022/07/16 08:46:30;;;;;;;853.05;801.47;;;27.00;99.90;;;;;;5063413;28;20234;-72
2022/07/16 08:48:57;;;;;;;912.88;855.90;;;26.50;99.90;;;;;;5087469;28;20192;-71
2022/07/16 08:51:34;;;;;;;939.83;880.38;;;27.30;99.90;;;;;;5048100;28;20210;-71
2022/07/16 08:54:17;;;;;;;929.10;870.20;;;28.90;99.90;;;;;;5087771;28;20214;-72
2022/07/16 08:56:43;;;;;;;885.42;830.63;;;29.40;99.90;;;;;;5075820;28;20180;-71
2022/07/16 08:59:10;;;;;;;847.22;796.63;;;29.40;99.90;;;;;;5059382;28;20522;-72
2022/07/16 09:01:36;;;;;;;860.60;808.08;;;27.90;99.90;;;;;;5079946;28;20238;-72
2022/07/16 09:04:03;;;;;;;869.08;815.67;;;28.90;99.90;;;;;;5057034;28;20228;-71
2022/07/16 09:06:29;;;;;;;869.28;815.80;;;28.90;99.90;;;;;;5077181;28;20200;-72
2022/07/16 09:08:56;;;;;;;880.95;826.72;;;28.90;99.90;;;;;;5079943;28;20176;-72
2022/07/16 09:11:24;;;;;;;852.00;800.40;;;30.00;99.90;;;;;;5083613;28;20181;-71
2022/07/16 09:14:07;;;;;;;805.47;759.17;;;29.70;99.90;;;;;;5084854;28;20211;-72
2022/07/16 09:16:46;;;;;;;785.13;741.25;;;28.40;99.90;;;;;;5080609;28;20227;-71
2022/07/16 09:19:16;;;;;;;780.03;736.75;;;27.50;99.90;;;;;;5057584;28;20176;-72
2022/07/16 09:22:03;;;;;;;827.30;778.50;;;26.40;99.90;;;;;;5069048;28;20244;-71
2022/07/16 09:24:40;;;;;;;841.58;791.45;;;27.30;99.90;;;;;;5057186;28;20574;-71
2022/07/16 09:27:17;;;;;;;845.80;795.28;;;28.30;99.90;;;;;;5078844;28;20180;-71
2022/07/16 09:29:56;;;;;;;825.13;776.85;;;28.80;99.90;;;;;;5065714;28;20644;-71
2022/07/16 09:32:28;;;;;;;824.85;776.60;;;28.70;99.90;;;;;;5075281;28;20263;-70
2022/07/16 09:35:10;;;;;;;823.75;775.15;;;27.80;99.90;;;;;;5082297;28;20210;-70
2022/07/16 09:37:52;;;;;;;847.42;796.20;;;27.60;99.90;;;;;;5082807;28;20181;-70
2022/07/16 09:40:42;;;;;;;847.70;796.53;;;26.70;99.90;;;;;;5082490;28;20185;-70
2022/07/16 09:43:14;;;;;;;873.83;820.35;;;24.80;99.90;;;;;;5086230;28;20213;-70
2022/07/16 09:45:45;;;;;;;901.58;845.90;;;24.10;99.90;;;;;;5068328;28;20272;-70
2022/07/16 09:48:20;;;;;;;916.17;859.22;;;24.40;99.90;;;;;;5083814;28;20174;-70
2022/07/16 09:50:46;;;;;;;937.78;878.90;;;24.20;99.90;;;;;;5084412;28;20208;-70
2022/07/16 09:53:17;;;;;;;944.03;884.38;;;24.20;99.90;;;;;;5075654;28;20196;-69
2022/07/16 09:56:05;;;;;;;978.80;915.30;;;23.90;99.90;;;;;;5068508;28;20650;-70
2022/07/16 09:58:32;;;;;;;1002.83;937.08;;;24.10;99.90;;;;;;5087630;28;20205;-70
2022/07/16 10:00:59;;;;;;;1007.08;940.70;;;24.60;99.90;;;;;;5083732;28;20185;-70
2022/07/16 10:03:26;;;;;;;1010.55;943.90;;;24.40;99.90;;;;;;5084912;28;20307;-69
2022/07/16 10:05:52;;;;;;;1007.28;941.17;;;24.70;99.90;;;;;;5069257;28;20238;-70
2022/07/16 10:08:18;;;;;;;997.92;932.65;;;24.30;99.90;;;;;;5076276;28;20188;-70
2022/07/16 10:10:45;;;;;;;993.83;928.97;;;24.10;99.90;;;;;;5077059;28;20557;-73
2022/07/16 10:13:12;;;;;;;976.30;913.30;;;24.00;99.90;;;;;;5084324;28;20209;-71
2022/07/16 10:15:38;;;;;;;970.47;908.15;;;23.50;99.90;;;;;;5076360;28;20251;-70
2022/07/16 10:18:33;;;;;;;970.80;908.47;;;23.50;99.90;;;;;;5075801;28;20182;-70
2022/07/16 10:21:25;;;;;;;979.88;916.42;;;23.60;99.90;;;;;;5091921;28;20587;-70
2022/07/16 10:24:05;;;;;;;986.65;922.40;;;23.80;99.90;;;;;;5070129;28;20286;-69
2022/07/16 10:26:32;;;;;;;985.97;922.22;;;24.30;99.90;;;;;;5082331;28;20264;-70
2022/07/16 10:28:58;;;;;;;976.53;913.72;;;24.60;99.90;;;;;;5091755;28;20173;-70
2022/07/16 10:31:34;;;;;;;951.53;890.60;;;24.30;99.90;;;;;;5058711;28;20188;-70
2022/07/16 10:34:15;;;;;;;948.05;888.05;;;23.80;99.90;;;;;;5089117;28;20199;-69
2022/07/16 10:36:48;;;;;;;954.65;894.28;;;23.60;99.90;;;;;;5086123;28;20313;-70
2022/07/16 10:39:15;;;;;;;973.95;911.70;;;23.30;99.90;;;;;;5079217;28;20181;-70
2022/07/16 10:41:58;;;;;;;961.22;900.13;;;23.70;99.90;;;;;;5066383;28;20185;-71
2022/07/16 10:44:44;;;;;;;955.25;894.63;;;23.50;99.90;;;;;;5088509;28;20205;-71
2022/07/16 10:47:11;;;;;;;955.50;894.97;;;23.30;99.90;;;;;;5060415;28;20566;-71
2022/07/16 10:49:37;;;;;;;973.47;911.17;;;23.60;99.90;;;;;;5079518;28;20177;-71
2022/07/16 10:52:11;;;;;;;983.92;920.38;;;23.90;99.90;;;;;;5088481;28;20188;-71
2022/07/16 10:54:39;;;;;;;964.33;902.60;;;24.50;99.90;;;;;;5065753;28;20204;-71
2022/07/16 10:57:09;;;;;;;942.47;883.30;;;24.40;99.90;;;;;;5069602;28;20198;-71
2022/07/16 10:59:42;;;;;;;942.83;883.80;;;24.30;99.90;;;;;;5093176;28;20215;-71
2022/07/16 11:02:10;;;;;;;919.97;862.35;;;24.40;99.90;;;;;;5082903;28;20205;-71
2022/07/16 11:04:41;;;;;;;909.40;853.05;;;24.30;99.90;;;;;;5073272;28;20232;-71
2022/07/16 11:07:19;;;;;;;914.08;857.45;;;24.10;99.90;;;;;;5074725;28;20269;-71
2022/07/16 11:09:50;;;;;;;911.97;855.45;;;24.10;99.90;;;;;;5078838;28;20184;-70
2022/07/16 11:12:21;;;;;;;914.15;857.28;;;24.00;99.90;;;;;;5072802;28;20706;-71
2022/07/16 11:14:50;;;;;;;916.38;859.95;;;24.30;99.90;;;;;;5083558;28;20180;-70
2022/07/16 11:17:21;;;;;;;907.78;851.83;;;23.90;99.90;;;;;;5075166;28;20200;-71
2022/07/16 11:19:50;;;;;;;892.58;837.67;;;23.90;99.90;;;;;;5079404;28;20204;-71
2022/07/16 11:22:26;;;;;;;876.95;823.65;;;23.70;99.90;;;;;;5071181;28;20195;-72
2022/07/16 11:24:54;;;;;;;898.10;842.78;;;23.50;99.90;;;;;;5078689;28;20212;-72
2022/07/16 11:27:59;;;;;;;910.38;854.13;;;23.50;99.90;;;;;;5071890;28;20608;-72
2022/07/16 11:30:25;;;;;;;909.15;852.80;;;23.50;99.90;;;;;;5061959;28;20204;-71
2022/07/16 11:32:50;;;;;;;927.85;869.97;;;23.70;99.90;;;;;;5083330;28;20537;-71
2022/07/16 11:35:16;;;;;;;928.33;870.42;;;24.10;99.90;;;;;;5090026;28;20188;-72
2022/07/16 11:37:58;;;;;;;930.58;872.35;;;24.60;99.90;;;;;;5053311;28;20193;-71
2022/07/16 11:40:37;;;;;;;920.47;862.92;;;25.00;99.90;;;;;;5072951;28;20180;-71
2022/07/16 11:43:04;;;;;;;907.13;850.38;;;25.10;99.90;;;;;;5055922;28;20220;-72
2022/07/16 11:45:35;;;;;;;909.83;853.30;;;24.90;99.90;;;;;;5073202;28;20181;-72
2022/07/16 11:48:20;;;;;;;906.85;850.55;;;25.00;99.90;;;;;;5074682;28;20188;-72
2022/07/16 11:50:47;;;;;;;893.47;838.42;;;25.10;99.90;;;;;;5042950;28;20181;-72
2022/07/16 11:53:13;;;;;;;898.72;843.28;;;25.10;99.90;;;;;;5083634;28;20188;-72
2022/07/16 11:55:43;;;;;;;883.03;829.08;;;25.10;99.90;;;;;;5066629;28;20286;-71
2022/07/16 11:58:11;;;;;;;874.92;821.60;;;25.00;99.90;;;;;;5076091;28;20219;-72
2022/07/16 12:00:48;;;;;;;868.00;815.00;;;25.00;99.90;;;;;;5081586;28;20181;-72
2022/07/16 12:03:14;;;;;;;876.30;822.70;;;25.10;99.90;;;;;;5074116;28;20204;-72
2022/07/16 12:05:40;;;;;;;869.08;816.00;;;25.20;99.90;;;;;;5073459;28;20196;-71
2022/07/16 12:08:08;;;;;;;858.95;807.05;;;25.20;99.90;;;;;;5068197;28;20181;-72
2022/07/16 12:10:34;;;;;;;854.75;803.28;;;25.00;99.90;;;;;;5083381;28;20697;-72
2022/07/16 12:13:09;;;;;;;857.88;806.25;;;25.00;99.90;;;;;;5074249;28;20326;-72